Time;durP1;ratioP1;P1;durP2;ratioP2;P2;SDS_P1;SDS_P2;PMS_P1;PMS_P2;Temp;Humidity;BMP_temperature;BMP_pressure;BME280_temperature;BME280_humidity;BME280_pressure;Samples;Min_cycle;Max_cycle;Signal;HPM_P1;HPM_P2
2023/12/17 00:01:01;;;;;;;21.60;12.90;;;;;;;0.55;85.42;100633.06;79251;1300;3011669;-70
2023/12/17 00:03:30;;;;;;;21.20;11.70;;;;;;;0.30;86.46;100628.94;78225;1300;3069103;-67
2023/12/17 00:05:56;;;;;;;22.50;12.00;;;;;;;0.20;87.64;100631.86;79431;1300;3013267;-68
2023/12/17 00:08:23;;;;;;;25.50;14.30;;;;;;;0.26;87.25;100628.94;79451;1298;3011678;-71
2023/12/17 00:10:52;;;;;;;22.90;11.30;;;;;;;0.22;87.94;100627.21;78422;1299;3025332;-69
2023/12/17 00:13:18;;;;;;;24.20;11.30;;;;;;;0.68;87.78;100625.45;79457;1298;3012679;-69
2023/12/17 00:15:46;;;;;;;29.60;14.50;;;;;;;1.31;85.52;100622.17;79618;1300;3011665;-66
2023/12/17 00:18:14;;;;;;;29.90;14.60;;;;;;;1.48;84.50;100619.88;78330;1301;3067442;-73
2023/12/17 00:20:41;;;;;;;32.20;14.80;;;;;;;1.53;83.62;100616.20;79553;1298;3013499;-71
2023/12/17 00:23:09;;;;;;;25.00;12.50;;;;;;;1.08;84.35;100613.11;79337;1300;3011612;-68
2023/12/17 00:25:37;;;;;;;25.80;13.60;;;;;;;0.90;85.25;100607.30;77950;1298;3053782;-68
2023/12/17 00:28:03;;;;;;;23.90;12.30;;;;;;;0.62;86.41;100609.09;79266;1301;3013525;-69
2023/12/17 00:30:30;;;;;;;26.80;14.00;;;;;;;0.56;86.84;100606.86;79250;1301;3011719;-69
2023/12/17 00:32:58;;;;;;;26.30;14.10;;;;;;;0.46;87.28;100607.04;77998;1299;3028227;-66
2023/12/17 00:35:25;;;;;;;25.60;14.10;;;;;;;0.35;87.93;100604.63;79196;1301;3013557;-64
2023/12/17 00:37:52;;;;;;;21.30;10.70;;;;;;;0.28;89.23;100610.31;79225;1301;3011936;-65
2023/12/17 00:40:21;;;;;;;24.10;12.20;;;;;;;0.90;88.96;100605.91;78081;1301;3028002;-63
2023/12/17 00:42:47;;;;;;;25.30;13.60;;;;;;;1.44;86.41;100600.89;79571;1301;3012985;-67
2023/12/17 00:45:14;;;;;;;25.10;13.80;;;;;;;1.45;85.40;100597.42;79452;1300;3011823;-64
2023/12/17 00:47:43;;;;;;;28.70;13.80;;;;;;;1.60;84.89;100593.73;78312;1298;3068108;-71
2023/12/17 00:50:09;;;;;;;25.80;14.20;;;;;;;1.25;85.08;100594.23;79592;1298;3012970;-69
2023/12/17 00:52:37;;;;;;;28.10;14.60;;;;;;;1.11;85.74;100588.77;79525;1298;3011742;-71
2023/12/17 00:55:06;;;;;;;25.50;14.60;;;;;;;1.02;85.73;100595.02;78239;1298;3052802;-68
2023/12/17 00:57:33;;;;;;;29.00;14.10;;;;;;;0.97;85.79;100588.48;79767;1300;3013326;-72
2023/12/17 00:59:59;;;;;;;31.30;14.90;;;;;;;0.94;85.78;100588.83;79354;1300;3013654;-67
2023/12/17 01:02:27;;;;;;;24.40;11.90;;;;;;;0.76;86.61;100590.08;78180;1298;3069024;-69
2023/12/17 01:04:54;;;;;;;27.50;12.50;;;;;;;1.24;87.32;100593.02;79449;1298;3018518;-75
2023/12/17 01:07:22;;;;;;;28.10;13.80;;;;;;;1.94;85.19;100593.15;79513;1297;3011654;-66
2023/12/17 01:09:50;;;;;;;27.70;13.80;;;;;;;1.92;84.05;100586.77;78189;1298;3026349;-70
2023/12/17 01:12:16;;;;;;;30.90;14.20;;;;;;;1.54;84.56;100581.14;79452;1301;3013336;-73
2023/12/17 01:14:43;;;;;;;27.10;15.70;;;;;;;1.30;85.82;100581.95;79417;1298;3011472;-70
2023/12/17 01:17:11;;;;;;;28.80;15.20;;;;;;;1.15;86.04;100576.15;78338;1297;3025959;-71
2023/12/17 01:19:38;;;;;;;28.20;14.80;;;;;;;0.98;86.92;100575.37;79478;1297;3013670;-75
2023/12/17 01:22:05;;;;;;;29.60;15.90;;;;;;;0.94;87.28;100569.34;79376;1298;3011957;-72
2023/12/17 01:24:33;;;;;;;21.30;11.20;;;;;;;0.94;87.13;100569.88;78200;1298;3028437;-70
2023/12/17 01:27:00;;;;;;;24.80;12.80;;;;;;;1.26;87.20;100568.52;79641;1297;3012989;-75
2023/12/17 01:29:27;;;;;;;27.30;13.70;;;;;;;1.80;85.77;100561.81;79297;1298;3011787;-71
2023/12/17 01:31:57;;;;;;;27.30;13.40;;;;;;;1.90;85.12;100564.50;78259;1301;3025724;-67
2023/12/17 01:34:24;;;;;;;31.00;14.50;;;;;;;2.03;84.60;100566.47;79434;1301;3011674;-68
2023/12/17 01:36:53;;;;;;;30.90;15.50;;;;;;;1.63;84.83;100561.23;78966;1300;3011721;-74
2023/12/17 01:39:20;;;;;;;28.20;13.80;;;;;;;1.38;86.05;100567.59;79397;1298;3013657;-70
2023/12/17 01:41:47;;;;;;;28.20;14.60;;;;;;;1.22;86.72;100564.39;79443;1298;3011588;-76
2023/12/17 01:44:15;;;;;;;30.40;14.90;;;;;;;1.19;86.61;100565.79;78196;1300;3025676;-71
2023/12/17 01:46:42;;;;;;;30.70;15.80;;;;;;;1.05;86.97;100569.30;79628;1298;3019160;-71
2023/12/17 01:49:09;;;;;;;29.90;15.20;;;;;;;0.92;88.40;100574.34;79284;1298;3011670;-66
2023/12/17 01:51:37;;;;;;;33.50;15.10;;;;;;;1.87;87.20;100577.98;78143;1298;3026127;-70
2023/12/17 01:54:03;;;;;;;31.90;16.00;;;;;;;2.26;84.96;100574.58;79403;1300;3020512;-73
2023/12/17 01:56:31;;;;;;;30.10;15.10;;;;;;;2.17;84.69;100573.27;79648;1298;3011868;-70
2023/12/17 01:58:59;;;;;;;33.70;16.10;;;;;;;2.02;85.02;100568.38;78140;1301;3026456;-68
2023/12/17 02:01:26;;;;;;;30.70;16.10;;;;;;;1.78;85.75;100579.28;79381;1300;3013299;-73
2023/12/17 02:03:53;;;;;;;31.30;14.70;;;;;;;1.69;85.83;100579.67;79405;1301;3011556;-67
2023/12/17 02:06:21;;;;;;;31.70;16.80;;;;;;;1.50;86.12;100580.31;78415;1297;3055147;-70
2023/12/17 02:08:47;;;;;;;36.70;17.60;;;;;;;1.24;87.36;100578.55;79527;1297;3013566;-71
2023/12/17 02:11:15;;;;;;;27.80;13.10;;;;;;;1.08;88.61;100582.58;79414;1298;3011546;-67
2023/12/17 02:13:43;;;;;;;30.70;16.20;;;;;;;1.71;88.83;100582.57;78627;1303;3026971;-70
2023/12/17 02:16:09;;;;;;;27.80;13.00;;;;;;;2.30;86.29;100580.59;79698;1297;3018330;-65
2023/12/17 02:18:36;;;;;;;35.00;16.90;;;;;;;2.36;84.73;100579.85;79561;1300;3013054;-70
2023/12/17 02:21:04;;;;;;;37.10;16.90;;;;;;;2.21;84.99;100579.64;78459;1297;3026392;-69
2023/12/17 02:23:31;;;;;;;28.70;15.60;;;;;;;1.74;85.88;100583.78;79712;1298;3013628;-70
2023/12/17 02:25:58;;;;;;;32.80;16.60;;;;;;;1.57;87.40;100579.41;79684;1300;3011581;-70
2023/12/17 02:28:26;;;;;;;41.00;19.40;;;;;;;1.50;87.46;100579.97;78427;1300;3051677;-69
2023/12/17 02:30:53;;;;;;;34.90;15.90;;;;;;;1.24;88.94;100579.05;79606;1298;3012650;-70
2023/12/17 02:33:20;;;;;;;26.30;10.60;;;;;;;1.24;89.30;100580.44;79560;1298;3011542;-69
2023/12/17 02:35:49;;;;;;;30.50;14.90;;;;;;;1.75;88.64;100585.49;78480;1298;3056224;-70
2023/12/17 02:38:16;;;;;;;32.90;14.80;;;;;;;2.42;86.81;100583.77;79502;1298;3018643;-68
2023/12/17 02:40:44;;;;;;;32.20;16.00;;;;;;;2.43;85.37;100587.05;79282;1298;3011698;-68
2023/12/17 02:43:12;;;;;;;27.00;13.90;;;;;;;2.28;85.28;100588.23;78160;1300;3052771;-73
2023/12/17 02:45:39;;;;;;;32.00;16.20;;;;;;;2.07;86.09;100586.66;79408;1298;3013731;-69
2023/12/17 02:48:06;;;;;;;34.20;15.40;;;;;;;1.95;86.26;100587.63;79329;1298;3013456;-69
2023/12/17 02:50:34;;;;;;;31.10;15.60;;;;;;;1.89;85.82;100592.15;78241;1298;3026859;-72
2023/12/17 02:53:01;;;;;;;31.40;16.30;;;;;;;1.56;87.01;100593.74;79499;1298;3013837;-74
2023/12/17 02:55:28;;;;;;;22.70;10.90;;;;;;;1.36;88.99;100589.52;79458;1298;3011824;-68
2023/12/17 02:57:56;;;;;;;32.60;15.70;;;;;;;1.97;88.97;100590.52;78232;1298;3026471;-67
2023/12/17 03:00:23;;;;;;;32.70;14.60;;;;;;;2.48;87.05;100587.88;79491;1297;3012992;-71
2023/12/17 03:02:50;;;;;;;30.70;14.90;;;;;;;2.53;85.88;100580.73;79283;1298;3011409;-66
2023/12/17 03:05:18;;;;;;;31.00;14.90;;;;;;;2.37;86.04;100586.41;78149;1297;3025077;-72
2023/12/17 03:07:45;;;;;;;30.30;13.30;;;;;;;2.02;86.96;100588.27;79360;1298;3018504;-70
2023/12/17 03:10:11;;;;;;;30.10;15.10;;;;;;;2.08;86.96;100592.70;79480;1298;3011635;-70
2023/12/17 03:12:39;;;;;;;29.30;15.50;;;;;;;2.00;86.16;100592.95;78141;1300;3028389;-75
2023/12/17 03:16:09;;;;;;;30.00;14.10;;;;;;;1.80;87.37;100585.99;80158;1301;3013760;-70
2023/12/17 03:18:35;;;;;;;30.30;14.30;;;;;;;2.35;86.82;100584.70;79107;1302;3018742;-70
2023/12/17 03:21:05;;;;;;;32.10;14.20;;;;;;;2.80;85.37;100581.48;79278;1302;3011547;-72
2023/12/17 03:23:34;;;;;;;33.10;15.60;;;;;;;2.73;85.11;100580.88;78012;1300;3051875;-73
2023/12/17 03:26:03;;;;;;;30.40;14.30;;;;;;;2.64;84.49;100577.34;79315;1303;3012842;-70
2023/12/17 03:28:32;;;;;;;30.20;15.20;;;;;;;2.20;85.72;100585.19;78573;1298;3214800;-72
2023/12/17 03:30:59;;;;;;;33.00;15.80;;;;;;;1.94;86.66;100583.81;79549;1298;3013604;-69
2023/12/17 03:33:25;;;;;;;32.40;15.90;;;;;;;1.85;86.84;100581.64;79424;1301;3013218;-75
2023/12/17 03:35:53;;;;;;;29.70;14.50;;;;;;;1.59;88.39;100582.15;78229;1301;3026608;-70
2023/12/17 03:38:20;;;;;;;26.90;12.40;;;;;;;1.53;89.25;100585.13;79369;1301;3013877;-71
2023/12/17 03:40:47;;;;;;;24.40;13.10;;;;;;;2.15;88.49;100579.84;79218;1304;3013002;-68
2023/12/17 03:43:15;;;;;;;27.70;13.30;;;;;;;2.51;86.90;100583.52;78228;1298;3025960;-72
2023/12/17 03:45:44;;;;;;;30.60;13.80;;;;;;;2.79;85.49;100581.34;79477;1297;3011647;-71
2023/12/17 03:48:14;;;;;;;28.20;12.10;;;;;;;2.37;86.04;100583.83;78933;1297;3013595;-68
2023/12/17 03:50:41;;;;;;;28.80;13.30;;;;;;;2.13;86.77;100579.70;79496;1298;3013117;-72
2023/12/17 03:53:10;;;;;;;25.20;12.10;;;;;;;2.01;87.26;100582.74;79375;1296;3011919;-75
2023/12/17 03:55:38;;;;;;;29.70;13.90;;;;;;;1.88;86.93;100578.50;78357;1301;3051277;-70
2023/12/17 03:58:05;;;;;;;28.70;13.60;;;;;;;1.73;87.68;100572.91;79528;1298;3013272;-71
2023/12/17 04:00:32;;;;;;;27.10;11.70;;;;;;;1.70;87.96;100572.95;79600;1301;3011643;-70
2023/12/17 04:03:00;;;;;;;29.00;13.30;;;;;;;2.23;88.10;100570.11;78371;1301;3025045;-69
2023/12/17 04:05:26;;;;;;;29.70;13.80;;;;;;;2.87;86.45;100564.27;79460;1301;3013505;-69
2023/12/17 04:07:53;;;;;;;29.40;14.40;;;;;;;2.73;85.20;100557.87;79393;1301;3013484;-70
2023/12/17 04:10:22;;;;;;;27.40;14.60;;;;;;;2.35;86.33;100560.15;78134;1299;3026600;-73
2023/12/17 04:12:49;;;;;;;28.60;14.90;;;;;;;1.97;87.97;100557.54;79393;1297;3011654;-72
2023/12/17 04:15:16;;;;;;;28.00;14.30;;;;;;;1.82;88.74;100560.42;79604;1295;3011365;-72
2023/12/17 04:17:44;;;;;;;27.40;13.50;;;;;;;1.64;89.69;100571.07;78245;1295;3048138;-69
2023/12/17 04:20:12;;;;;;;29.90;13.90;;;;;;;1.59;90.08;100574.20;79411;1295;3016457;-74
2023/12/17 04:22:39;;;;;;;22.70;10.80;;;;;;;1.57;90.25;100570.08;79433;1295;3011634;-69
2023/12/17 04:25:08;;;;;;;23.20;11.90;;;;;;;1.91;90.34;100566.89;78341;1298;3049763;-68
2023/12/17 04:27:35;;;;;;;26.70;12.80;;;;;;;2.68;87.83;100561.03;79704;1301;3013654;-69
2023/12/17 04:30:02;;;;;;;27.10;14.20;;;;;;;2.54;86.99;100565.85;79492;1295;3012083;-70
2023/12/17 04:32:30;;;;;;;26.70;14.50;;;;;;;2.52;86.63;100570.19;78371;1296;3048293;-71
2023/12/17 04:34:57;;;;;;;33.20;15.90;;;;;;;2.23;87.05;100576.16;79603;1298;3013198;-74
2023/12/17 04:37:24;;;;;;;37.10;18.10;;;;;;;1.88;88.51;100571.94;79422;1301;3013065;-72
2023/12/17 04:39:52;;;;;;;34.80;17.00;;;;;;;1.88;88.29;100577.13;78421;1295;3025996;-72
2023/12/17 04:42:19;;;;;;;23.30;11.50;;;;;;;1.62;89.11;100580.41;79595;1295;3018894;-68
2023/12/17 04:44:45;;;;;;;27.90;13.40;;;;;;;1.99;89.95;100575.49;79545;1295;3011532;-71
2023/12/17 04:47:13;;;;;;;29.10;13.70;;;;;;;2.42;88.62;100573.05;78262;1299;3026216;-74
2023/12/17 04:49:40;;;;;;;28.00;13.70;;;;;;;2.36;87.62;100570.17;79449;1299;3018673;-73
2023/12/17 04:52:07;;;;;;;26.40;13.70;;;;;;;2.12;88.22;100576.42;79582;1300;3012852;-69
2023/12/17 04:54:36;;;;;;;28.20;13.40;;;;;;;1.91;89.18;100574.34;78220;1295;3053310;-72
2023/12/17 04:57:03;;;;;;;28.00;13.80;;;;;;;1.83;89.24;100572.85;79487;1300;3019037;-68
2023/12/17 04:59:30;;;;;;;22.90;11.00;;;;;;;1.64;89.99;100567.27;79494;1300;3011525;-69
2023/12/17 05:01:58;;;;;;;35.40;12.60;;;;;;;1.54;90.23;100567.16;78370;1295;3026322;-72
2023/12/17 05:04:25;;;;;;;25.90;11.50;;;;;;;1.44;91.32;100569.46;79532;1300;3012875;-71
2023/12/17 05:06:52;;;;;;;23.70;11.50;;;;;;;2.13;91.03;100567.06;79419;1298;3011593;-70
2023/12/17 05:09:20;;;;;;;22.60;11.20;;;;;;;2.58;87.76;100557.67;78413;1296;3026997;-72
2023/12/17 05:11:47;;;;;;;24.60;13.10;;;;;;;2.37;87.85;100556.50;79640;1295;3013110;-70
2023/12/17 05:14:14;;;;;;;24.10;10.10;;;;;;;2.09;88.15;100560.38;79543;1301;3011625;-69
2023/12/17 05:16:42;;;;;;;29.50;14.00;;;;;;;2.20;88.09;100555.63;78343;1295;3048035;-71
2023/12/17 05:19:09;;;;;;;27.20;14.10;;;;;;;1.99;88.24;100562.20;79505;1300;3013502;-71
2023/12/17 05:21:36;;;;;;;28.60;14.20;;;;;;;1.68;89.43;100565.16;79623;1295;3013169;-71
2023/12/17 05:24:06;;;;;;;27.20;14.00;;;;;;;1.61;90.32;100570.91;78260;1301;3025767;-73
2023/12/17 05:26:33;;;;;;;22.30;10.00;;;;;;;1.51;91.02;100571.84;79634;1295;3011629;-67
2023/12/17 05:28:59;;;;;;;22.80;11.70;;;;;;;2.30;90.65;100577.12;79534;1295;3011929;-73
2023/12/17 05:31:27;;;;;;;22.10;11.40;;;;;;;2.80;87.82;100576.48;78333;1301;3047449;-69
2023/12/17 05:33:54;;;;;;;22.80;11.40;;;;;;;2.81;86.52;100578.02;79451;1295;3013054;-71
2023/12/17 05:36:21;;;;;;;26.50;12.20;;;;;;;2.61;86.47;100578.92;79425;1295;3011963;-70
2023/12/17 05:38:49;;;;;;;22.20;11.40;;;;;;;2.27;87.46;100586.67;78275;1296;3026559;-74
2023/12/17 05:41:16;;;;;;;24.60;12.00;;;;;;;2.13;88.12;100585.92;79520;1295;3019063;-75
2023/12/17 05:43:43;;;;;;;22.60;12.00;;;;;;;2.18;87.68;100591.58;79536;1300;3011856;-74
2023/12/17 05:46:10;;;;;;;21.00;11.00;;;;;;;1.95;88.10;100591.08;78325;1295;3026791;-72
2023/12/17 05:48:37;;;;;;;22.90;9.10;;;;;;;1.83;89.21;100594.45;79481;1296;3014056;-73
2023/12/17 05:51:08;;;;;;;20.20;9.60;;;;;;;2.33;88.82;100588.34;79586;1295;3011688;-69
2023/12/17 05:53:36;;;;;;;20.70;10.20;;;;;;;3.02;86.76;100583.33;78572;1295;3053023;-73
2023/12/17 05:56:04;;;;;;;21.40;10.20;;;;;;;3.01;85.48;100589.21;79652;1295;3018335;-69
2023/12/17 05:58:31;;;;;;;22.20;11.20;;;;;;;2.94;85.31;100587.56;79539;1295;3011655;-69
2023/12/17 06:00:59;;;;;;;22.00;11.20;;;;;;;2.70;85.35;100592.16;78363;1296;3048047;-73
2023/12/17 06:03:26;;;;;;;31.00;11.60;;;;;;;2.44;86.25;100596.39;79601;1300;3013402;-71
2023/12/17 06:05:53;;;;;;;23.20;11.10;;;;;;;2.30;86.64;100597.20;79518;1296;3011881;-71
2023/12/17 06:08:21;;;;;;;23.70;11.70;;;;;;;2.27;86.92;100601.89;78297;1296;3025716;-73
2023/12/17 06:10:48;;;;;;;19.10;10.00;;;;;;;2.17;87.75;100603.01;79596;1300;3018468;-74
2023/12/17 06:13:15;;;;;;;20.20;11.30;;;;;;;2.56;87.50;100598.50;79529;1295;3011680;-72
2023/12/17 06:15:43;;;;;;;22.20;11.70;;;;;;;3.08;85.88;100592.42;78318;1301;3025613;-72
2023/12/17 06:18:09;;;;;;;22.50;11.50;;;;;;;3.14;85.35;100591.15;79504;1295;3018662;-73
2023/12/17 06:20:36;;;;;;;22.60;11.50;;;;;;;2.84;85.17;100589.94;79474;1301;3011819;-72
2023/12/17 06:23:04;;;;;;;21.90;11.00;;;;;;;2.68;85.47;100588.18;78222;1301;3025117;-73
2023/12/17 06:25:32;;;;;;;22.10;10.80;;;;;;;2.27;86.96;100588.23;79525;1295;3013156;-72
2023/12/17 06:27:59;;;;;;;23.20;11.70;;;;;;;2.11;87.90;100584.39;79447;1301;3011365;-72
2023/12/17 06:30:30;;;;;;;23.60;12.60;;;;;;;2.06;88.19;100583.39;78231;1300;3049655;-69
2023/12/17 06:32:57;;;;;;;14.80;6.90;;;;;;;2.00;88.60;100577.89;79610;1296;3011564;-73
2023/12/17 06:35:24;;;;;;;26.90;11.60;;;;;;;2.55;88.15;100578.11;79691;1296;3011632;-75
2023/12/17 06:37:52;;;;;;;23.70;11.50;;;;;;;2.80;86.86;100576.13;78367;1298;3053546;-71
2023/12/17 06:40:18;;;;;;;19.90;9.50;;;;;;;2.89;85.91;100572.39;79686;1299;3018804;-70
2023/12/17 06:42:45;;;;;;;22.60;11.80;;;;;;;2.68;87.00;100571.41;79820;1295;3011734;-66
2023/12/17 06:45:13;;;;;;;24.60;12.60;;;;;;;2.78;87.11;100572.36;78417;1296;3024861;-68
2023/12/17 06:47:40;;;;;;;21.40;11.00;;;;;;;2.66;87.58;100576.45;79633;1301;3012718;-70
2023/12/17 06:50:07;;;;;;;30.80;13.30;;;;;;;2.61;87.54;100561.45;79641;1295;3011930;-66
2023/12/17 06:52:36;;;;;;;27.00;11.80;;;;;;;2.33;87.63;100561.90;78243;1301;3028665;-68
2023/12/17 06:55:04;;;;;;;30.20;13.00;;;;;;;2.16;88.70;100571.21;79699;1298;3013022;-68
2023/12/17 06:57:31;;;;;;;24.00;10.70;;;;;;;1.95;90.10;100564.64;79536;1298;3011651;-70
2023/12/17 06:59:59;;;;;;;21.30;9.80;;;;;;;2.49;89.37;100559.31;78485;1298;3049109;-75
2023/12/17 07:02:26;;;;;;;25.30;12.20;;;;;;;3.04;87.06;100563.58;79547;1295;3015542;-69
2023/12/17 07:04:53;;;;;;;25.50;12.70;;;;;;;3.00;86.55;100559.29;79596;1296;3011680;-70
2023/12/17 07:07:21;;;;;;;21.30;11.60;;;;;;;2.69;86.96;100557.73;78510;1301;3052564;-73
2023/12/17 07:09:48;;;;;;;23.30;11.70;;;;;;;2.87;86.94;100554.42;79700;1295;3013126;-72
2023/12/17 07:12:15;;;;;;;25.20;12.20;;;;;;;2.86;85.94;100553.90;79553;1298;3012891;-75
2023/12/17 07:14:43;;;;;;;26.70;12.60;;;;;;;2.53;86.85;100553.06;78514;1295;3048062;-75
2023/12/17 07:17:10;;;;;;;26.10;12.30;;;;;;;2.21;88.41;100554.75;79431;1294;3012954;-71
2023/12/17 07:19:37;;;;;;;23.70;12.30;;;;;;;2.29;88.51;100555.88;79684;1295;3011802;-73
2023/12/17 07:22:05;;;;;;;22.30;9.50;;;;;;;2.14;89.31;100554.30;78422;1294;3026662;-73
2023/12/17 07:24:32;;;;;;;20.70;10.30;;;;;;;2.72;89.15;100551.98;79655;1296;3013290;-73
2023/12/17 07:26:58;;;;;;;23.20;11.30;;;;;;;3.29;86.57;100542.98;79941;1295;3011685;-74
2023/12/17 07:29:27;;;;;;;22.80;11.30;;;;;;;3.49;85.10;100546.71;78499;1294;3025900;-70
2023/12/17 07:31:53;;;;;;;20.30;10.80;;;;;;;2.92;85.14;100547.61;79541;1300;3013248;-75
2023/12/17 07:34:20;;;;;;;24.90;12.60;;;;;;;2.81;86.28;100558.30;79559;1296;3011644;-75
2023/12/17 07:36:48;;;;;;;27.00;12.80;;;;;;;2.57;87.30;100556.66;78393;1295;3026617;-72
2023/12/17 07:39:15;;;;;;;26.70;12.90;;;;;;;2.65;87.01;100551.71;79475;1301;3012952;-75
2023/12/17 07:41:42;;;;;;;27.70;14.50;;;;;;;2.60;86.69;100555.05;79556;1295;3011408;-69
2023/12/17 07:44:10;;;;;;;21.60;10.30;;;;;;;2.49;87.02;100550.15;78427;1298;3026587;-62
2023/12/17 07:46:36;;;;;;;23.80;12.90;;;;;;;2.87;86.90;100544.20;79603;1298;3013369;-70
2023/12/17 07:49:03;;;;;;;28.20;14.30;;;;;;;3.42;85.36;100542.98;79728;1298;3013491;-73
2023/12/17 07:51:31;;;;;;;27.70;14.90;;;;;;;3.21;84.41;100536.17;78535;1298;3025886;-68
2023/12/17 07:53:58;;;;;;;23.70;12.70;;;;;;;3.08;85.20;100533.73;79806;1298;3018399;-72
2023/12/17 07:56:26;;;;;;;22.70;11.80;;;;;;;3.14;84.80;100530.20;79620;1296;3011379;-72
2023/12/17 07:58:55;;;;;;;20.90;10.40;;;;;;;2.96;85.19;100524.02;78358;1296;3048126;-72
2023/12/17 08:01:29;;;;;;;21.40;10.50;;;;;;;2.75;85.68;100518.73;79570;1301;3013737;-71
2023/12/17 08:03:58;;;;;;;20.20;10.30;;;;;;;2.58;86.64;100514.97;78428;1298;3052021;-73
2023/12/17 08:06:25;;;;;;;18.90;10.50;;;;;;;2.45;87.43;100512.65;79618;1296;3012625;-74
2023/12/17 08:09:08;;;;;;;18.00;7.90;;;;;;;2.43;87.99;100509.05;79765;1296;3015082;-74
2023/12/17 08:11:37;;;;;;;18.70;8.90;;;;;;;3.00;87.11;100508.56;78593;1295;3056695;-74
2023/12/17 08:14:04;;;;;;;18.90;8.40;;;;;;;3.24;85.12;100500.47;79428;1301;3013137;-71
2023/12/17 08:16:32;;;;;;;18.40;9.50;;;;;;;3.60;84.24;100499.59;79583;1296;3011981;-76
2023/12/17 08:19:00;;;;;;;17.00;8.50;;;;;;;3.29;84.28;100498.30;78428;1295;3052903;-76
2023/12/17 08:21:28;;;;;;;18.70;8.90;;;;;;;3.09;84.93;100500.84;79869;1297;3013469;-75
2023/12/17 08:23:55;;;;;;;16.30;9.10;;;;;;;2.80;86.17;100494.81;79718;1295;3011282;-77
2023/12/17 08:26:26;;;;;;;18.10;9.30;;;;;;;2.65;87.03;100497.73;78404;1296;3056722;-75
2023/12/17 08:28:53;;;;;;;17.40;8.80;;;;;;;2.67;87.28;100498.77;79848;1294;3013256;-77
2023/12/17 08:31:22;;;;;;;17.00;8.90;;;;;;;2.57;87.01;100506.31;79047;1298;3013560;-76
2023/12/17 08:33:52;;;;;;;14.30;7.20;;;;;;;2.51;87.95;100505.17;79546;1298;3013131;-75
2023/12/17 08:36:22;;;;;;;16.30;8.30;;;;;;;3.04;86.89;100498.64;79150;1295;3011762;-73
2023/12/17 08:38:49;;;;;;;17.60;9.40;;;;;;;3.31;85.06;100491.02;79554;1298;3013291;-78
2023/12/17 08:41:16;;;;;;;18.90;8.90;;;;;;;3.31;85.09;100485.46;79729;1295;3011666;-72
2023/12/17 08:43:45;;;;;;;18.20;8.90;;;;;;;3.20;84.33;100474.88;78367;1295;3055937;-71
2023/12/17 08:46:12;;;;;;;17.70;9.40;;;;;;;2.96;85.71;100475.55;79761;1298;3013855;-72
2023/12/17 08:48:39;;;;;;;26.30;13.00;;;;;;;2.81;85.95;100469.02;79629;1295;3013080;-71
2023/12/17 08:51:07;;;;;;;33.10;16.10;;;;;;;2.65;87.11;100462.29;78464;1298;3051696;-71
2023/12/17 08:53:34;;;;;;;27.00;12.70;;;;;;;2.53;87.94;100451.19;79623;1298;3012944;-71
2023/12/17 08:56:02;;;;;;;17.60;9.00;;;;;;;2.44;88.57;100456.66;79711;1295;3013621;-67
2023/12/17 08:58:31;;;;;;;18.80;10.10;;;;;;;3.05;87.40;100444.96;78340;1298;3056836;-69
2023/12/17 09:00:57;;;;;;;21.90;9.60;;;;;;;3.32;85.48;100447.54;79681;1295;3013045;-69
2023/12/17 09:03:24;;;;;;;14.10;7.30;;;;;;;3.50;84.70;100446.39;79902;1295;3013459;-70
2023/12/17 09:05:52;;;;;;;20.40;10.00;;;;;;;3.17;84.47;100454.16;78932;1297;3052350;-74
2023/12/17 09:08:19;;;;;;;18.00;10.50;;;;;;;2.84;85.98;100448.38;79698;1295;3012936;-70
2023/12/17 09:10:46;;;;;;;23.60;12.70;;;;;;;2.66;86.78;100449.81;79687;1294;3011499;-73
2023/12/17 09:13:14;;;;;;;24.00;12.50;;;;;;;2.37;88.84;100441.70;78375;1295;3026724;-69
2023/12/17 09:15:41;;;;;;;20.40;10.70;;;;;;;2.50;87.80;100444.13;79517;1294;3011463;-69
2023/12/17 09:18:08;;;;;;;17.80;9.90;;;;;;;2.29;88.92;100434.34;79695;1296;3011603;-71
2023/12/17 09:20:36;;;;;;;20.50;11.60;;;;;;;3.08;87.00;100435.08;78399;1295;3026164;-70
2023/12/17 09:23:03;;;;;;;26.30;12.20;;;;;;;3.27;85.65;100427.88;79689;1298;3013433;-66
2023/12/17 09:25:29;;;;;;;27.80;12.90;;;;;;;3.52;84.60;100416.56;79661;1297;3011803;-67
2023/12/17 09:27:57;;;;;;;24.30;12.70;;;;;;;3.36;84.31;100428.61;78693;1296;3026792;-67
2023/12/17 09:30:24;;;;;;;23.50;12.00;;;;;;;3.06;85.09;100429.39;79710;1296;3013090;-67
2023/12/17 09:32:51;;;;;;;20.40;11.40;;;;;;;2.92;85.12;100428.91;79546;1296;3011708;-69
2023/12/17 09:35:20;;;;;;;26.70;12.50;;;;;;;2.78;86.33;100433.23;78490;1298;3026433;-71
2023/12/17 09:37:47;;;;;;;21.90;12.20;;;;;;;2.61;87.30;100432.06;79832;1298;3011932;-71
2023/12/17 09:40:15;;;;;;;17.40;9.70;;;;;;;2.68;86.93;100425.91;79723;1296;3011468;-68
2023/12/17 09:42:43;;;;;;;17.10;9.70;;;;;;;2.86;87.03;100421.35;78361;1294;3055402;-72
2023/12/17 09:45:14;;;;;;;21.40;11.50;;;;;;;3.27;86.00;100412.95;79603;1300;3013608;-69
2023/12/17 09:47:42;;;;;;;23.90;11.80;;;;;;;3.25;84.95;100409.89;78358;1301;3049500;-72
2023/12/17 09:50:12;;;;;;;24.90;13.50;;;;;;;2.97;85.81;100412.54;79779;1298;3013613;-72
2023/12/17 09:52:44;;;;;;;30.80;16.50;;;;;;;2.79;86.88;100406.23;79120;1301;3011641;-67
2023/12/17 09:55:11;;;;;;;30.10;16.10;;;;;;;2.67;86.79;100404.82;79643;1296;3011642;-71
2023/12/17 09:57:40;;;;;;;23.00;12.00;;;;;;;2.45;88.08;100401.13;79184;1295;3011924;-74
2023/12/17 10:00:12;;;;;;;22.80;12.30;;;;;;;2.09;90.02;100396.18;79861;1298;3013444;-69
2023/12/17 10:02:41;;;;;;;22.80;11.00;;;;;;;2.40;89.61;100398.08;78578;1294;3052874;-69
2023/12/17 10:05:08;;;;;;;19.50;9.80;;;;;;;2.86;87.92;100386.92;79622;1299;3013139;-72
2023/12/17 10:07:37;;;;;;;20.20;10.50;;;;;;;3.18;85.89;100382.80;79680;1298;3011604;-75
2023/12/17 10:10:06;;;;;;;18.70;10.80;;;;;;;2.97;86.14;100368.94;78379;1296;3068771;-73
2023/12/17 10:12:33;;;;;;;23.30;11.40;;;;;;;3.18;85.47;100361.02;79626;1296;3012868;-75
2023/12/17 10:15:00;;;;;;;22.90;11.50;;;;;;;2.92;85.52;100351.70;79617;1295;3011500;-71
2023/12/17 10:17:29;;;;;;;22.30;10.90;;;;;;;2.46;87.53;100352.16;78416;1298;3053858;-76
2023/12/17 10:19:55;;;;;;;21.20;10.90;;;;;;;2.25;89.26;100353.65;79606;1298;3016031;-73
2023/12/17 10:22:23;;;;;;;17.60;8.80;;;;;;;2.24;90.02;100343.11;79607;1298;3011602;-73
2023/12/17 10:24:51;;;;;;;16.10;10.00;;;;;;;2.74;89.09;100346.25;78340;1295;3069372;-74
2023/12/17 10:27:20;;;;;;;18.10;9.50;;;;;;;3.05;87.03;100343.71;79745;1298;3013315;-71
2023/12/17 10:29:51;;;;;;;20.50;10.70;;;;;;;3.39;85.35;100348.71;79675;1293;3013416;-75
2023/12/17 10:32:23;;;;;;;20.60;12.30;;;;;;;3.42;84.58;100345.36;78465;1298;3053600;-73
2023/12/17 10:34:50;;;;;;;24.00;12.30;;;;;;;2.78;86.32;100350.01;79627;1298;3011532;-72
2023/12/17 10:37:19;;;;;;;21.70;10.20;;;;;;;2.71;87.06;100341.96;78461;1298;3025245;-70
2023/12/17 10:39:48;;;;;;;24.10;11.90;;;;;;;2.60;87.65;100338.66;79865;1297;3012825;-71
2023/12/17 10:42:18;;;;;;;25.80;11.60;;;;;;;2.65;87.26;100344.83;79720;1297;3011917;-75
2023/12/17 10:44:49;;;;;;;17.50;8.40;;;;;;;2.38;88.43;100339.82;78476;1295;3056152;-73
2023/12/17 10:47:19;;;;;;;18.10;9.50;;;;;;;3.10;87.37;100353.67;79691;1294;3013618;-69
2023/12/17 10:49:47;;;;;;;27.30;14.50;;;;;;;3.44;84.27;100335.79;78459;1298;3053714;-73
2023/12/17 10:52:15;;;;;;;26.10;14.30;;;;;;;3.23;85.07;100334.42;79717;1298;3011512;-73
2023/12/17 10:54:42;;;;;;;16.20;9.00;;;;;;;3.15;85.09;100339.05;79888;1298;3011883;-71
2023/12/17 10:57:12;;;;;;;23.90;11.30;;;;;;;3.07;85.15;100333.66;78555;1295;3067896;-72
2023/12/17 10:59:39;;;;;;;27.80;13.50;;;;;;;2.70;86.40;100334.71;79655;1301;3013267;-71
2023/12/17 11:02:05;;;;;;;23.50;11.10;;;;;;;2.64;87.23;100343.98;79442;1295;3013473;-68
2023/12/17 11:04:34;;;;;;;29.20;12.70;;;;;;;2.48;87.88;100344.70;78379;1298;3053227;-71